Time;durP1;ratioP1;P1;durP2;ratioP2;P2;SDS_P1;SDS_P2;PMS_P1;PMS_P2;Temp;Humidity;BMP_temperature;BMP_pressure;BME280_temperature;BME280_humidity;BME280_pressure;Samples;Min_cycle;Max_cycle;Signal;HPM_P1;HPM_P2
2022/03/21 00:00:55;;;;;;;4.93;2.08;;;;;;;5.91;56.64;101180.28;5028250;28;20115;-44
2022/03/21 00:03:28;;;;;;;5.95;2.33;;;;;;;5.89;56.64;101178.56;5031032;28;20045;-44
2022/03/21 00:05:55;;;;;;;8.77;2.40;;;;;;;5.86;56.28;101169.00;5029490;28;20041;-43
2022/03/21 00:08:22;;;;;;;7.63;2.10;;;;;;;5.86;57.01;101168.19;5029319;28;20029;-43
2022/03/21 00:10:49;;;;;;;7.78;2.20;;;;;;;5.84;56.39;101163.00;5022040;28;20064;-42
2022/03/21 00:13:15;;;;;;;4.80;2.05;;;;;;;5.84;56.93;101160.41;5029573;28;20042;-44
2022/03/21 00:15:42;;;;;;;12.88;2.83;;;;;;;5.81;57.13;101162.94;5030409;28;20049;-44
2022/03/21 00:18:08;;;;;;;8.15;2.55;;;;;;;5.79;56.62;101158.66;5029212;28;20132;-45
2022/03/21 00:20:34;;;;;;;9.60;3.22;;;;;;;5.77;57.20;101155.16;5029374;28;20144;-42
2022/03/21 00:23:00;;;;;;;8.88;2.20;;;;;;;5.66;57.35;101125.81;5030406;28;20037;-45
2022/03/21 00:25:26;;;;;;;7.55;2.78;;;;;;;5.69;56.96;101133.63;5029005;28;20069;-43
2022/03/21 00:27:52;;;;;;;10.20;2.35;;;;;;;5.62;57.08;101127.53;5030483;28;20065;-45
2022/03/21 00:30:18;;;;;;;9.27;2.10;;;;;;;5.70;57.33;101143.97;5015892;28;20041;-44
2022/03/21 00:32:44;;;;;;;7.95;2.00;;;;;;;5.67;57.00;101136.16;5009377;28;20053;-44
2022/03/21 00:35:15;;;;;;;6.47;2.08;;;;;;;5.71;57.40;101137.91;5015857;28;20146;-42
2022/03/21 00:37:41;;;;;;;8.95;2.38;;;;;;;5.67;57.58;101138.75;5030050;28;20090;-43
2022/03/21 00:40:08;;;;;;;8.05;2.70;;;;;;;5.65;57.57;101143.06;5028754;28;20037;-44
2022/03/21 00:42:35;;;;;;;5.10;2.10;;;;;;;5.66;57.69;101146.47;5030534;28;20056;-44
2022/03/21 00:45:06;;;;;;;6.70;2.22;;;;;;;5.63;57.60;101147.31;5028003;28;20057;-44
2022/03/21 00:47:32;;;;;;;5.63;2.03;;;;;;;5.45;57.67;101135.09;5012866;28;20029;-43
2022/03/21 00:49:59;;;;;;;8.30;2.13;;;;;;;5.40;57.73;101118.72;5017440;28;20056;-42
2022/03/21 00:52:25;;;;;;;10.80;2.40;;;;;;;5.47;58.01;101136.00;5028922;28;20119;-44
2022/03/21 00:54:50;;;;;;;7.72;2.30;;;;;;;5.47;57.69;101133.41;5030178;28;20524;-44
2022/03/21 00:57:16;;;;;;;6.68;2.08;;;;;;;5.58;58.11;101150.72;5029778;28;20045;-44
2022/03/21 00:59:42;;;;;;;6.30;2.10;;;;;;;5.38;58.01;101115.28;5014088;28;20080;-44
2022/03/21 01:02:12;;;;;;;11.65;2.35;;;;;;;5.45;58.01;101134.25;5029770;28;20042;-43
2022/03/21 01:04:38;;;;;;;9.70;2.53;;;;;;;5.51;58.14;101135.16;5028737;28;20041;-43
2022/03/21 01:07:04;;;;;;;8.05;2.00;;;;;;;5.47;58.10;101130.84;5030062;28;20041;-43
2022/03/21 01:09:31;;;;;;;9.43;2.20;;;;;;;5.44;58.65;101135.13;5028240;28;20098;-42
2022/03/21 01:11:57;;;;;;;8.57;2.58;;;;;;;5.38;58.47;101135.91;5034669;28;20041;-43
2022/03/21 01:14:22;;;;;;;7.03;2.20;;;;;;;5.29;58.57;101128.06;5025197;28;20180;-43
2022/03/21 01:16:50;;;;;;;10.27;2.22;;;;;;;5.22;58.34;101120.28;5031075;28;20530;-44
2022/03/21 01:19:15;;;;;;;7.55;2.40;;;;;;;5.31;58.56;101139.28;5035423;28;20049;-45
2022/03/21 01:21:41;;;;;;;5.15;2.53;;;;;;;5.28;58.92;101133.22;5035034;28;20052;-43
2022/03/21 01:24:07;;;;;;;7.13;2.40;;;;;;;5.25;59.09;101128.88;5036641;28;20033;-45
2022/03/21 01:26:33;;;;;;;7.75;2.55;;;;;;;5.25;58.93;101139.19;5034901;28;20520;-43
2022/03/21 01:28:58;;;;;;;8.05;2.45;;;;;;;5.22;58.82;101130.59;5032131;28;20041;-43
2022/03/21 01:31:24;;;;;;;7.60;2.60;;;;;;;5.19;59.36;101131.41;5022554;28;20087;-44
2022/03/21 01:33:51;;;;;;;7.45;1.92;;;;;;;5.16;59.41;101122.78;5036198;28;20071;-43
2022/03/21 01:36:17;;;;;;;7.05;1.85;;;;;;;5.13;58.81;101127.03;5036357;28;20100;-44
2022/03/21 01:38:42;;;;;;;10.15;2.15;;;;;;;5.10;59.09;101128.72;5035982;28;20038;-43
2022/03/21 01:41:08;;;;;;;11.20;2.75;;;;;;;5.08;59.63;101125.25;5035090;28;20037;-43
2022/03/21 01:43:54;;;;;;;10.05;2.92;;;;;;;5.04;59.55;101129.53;5035258;28;20037;-43
2022/03/21 01:46:20;;;;;;;7.57;2.25;;;;;;;5.01;59.93;101128.63;5035563;28;20087;-42
2022/03/21 01:48:46;;;;;;;9.93;2.03;;;;;;;4.99;59.92;101135.47;5035666;28;20041;-43
2022/03/21 01:51:11;;;;;;;8.52;2.42;;;;;;;4.99;59.49;101140.63;5036391;28;20047;-44
2022/03/21 01:56:23;;;;;;;11.00;2.63;;;;;;;4.96;59.72;101143.19;5036102;28;20132;-43
2022/03/21 01:58:48;;;;;;;9.70;2.42;;;;;;;4.95;60.07;101136.28;5031829;28;20100;-44
2022/03/21 02:01:14;;;;;;;10.27;2.25;;;;;;;4.90;60.27;101133.66;5024166;28;20490;-45
2022/03/21 02:03:40;;;;;;;10.82;2.50;;;;;;;4.86;60.62;101131.91;5036103;28;20052;-43
2022/03/21 02:06:05;;;;;;;7.68;2.35;;;;;;;4.82;60.64;101131.81;5035693;28;20118;-43
2022/03/21 02:08:31;;;;;;;5.40;2.15;;;;;;;4.79;60.64;101126.66;5035346;28;20038;-44
2022/03/21 02:10:57;;;;;;;6.57;2.30;;;;;;;4.77;60.65;101128.31;5035818;28;20047;-43
2022/03/21 02:13:23;;;;;;;9.07;3.13;;;;;;;4.63;61.14;101098.13;5036095;28;20037;-42
2022/03/21 02:15:49;;;;;;;8.10;2.40;;;;;;;4.66;60.81;101111.03;5035421;28;20080;-43
2022/03/21 02:18:16;;;;;;;6.03;2.00;;;;;;;4.75;61.12;101127.47;5035661;28;20444;-43
2022/03/21 02:20:43;;;;;;;9.07;2.63;;;;;;;4.76;60.96;101131.78;5034879;28;20044;-45
2022/03/21 02:23:36;;;;;;;11.27;2.85;;;;;;;4.73;61.19;101130.00;5031805;28;20402;-43
2022/03/21 02:26:02;;;;;;;6.57;2.17;;;;;;;4.62;61.03;101126.44;5025182;28;20045;-43
2022/03/21 02:28:29;;;;;;;10.20;2.45;;;;;;;4.69;61.12;101129.13;5031523;28;20061;-43
2022/03/21 02:30:55;;;;;;;8.50;2.63;;;;;;;4.68;61.30;101134.25;5014319;28;20045;-45
2022/03/21 02:33:21;;;;;;;8.50;2.53;;;;;;;4.68;61.41;101129.97;5031048;28;20033;-44
2022/03/21 02:35:49;;;;;;;9.23;2.78;;;;;;;4.66;61.46;101128.19;5030744;28;20111;-44
2022/03/21 02:38:16;;;;;;;9.63;2.88;;;;;;;4.69;61.33;101131.69;5031270;28;20037;-43
2022/03/21 02:40:41;;;;;;;8.60;3.00;;;;;;;4.68;61.40;101129.97;5032694;28;20111;-44
2022/03/21 02:43:07;;;;;;;9.95;3.00;;;;;;;4.67;61.75;101135.94;5032018;28;20516;-44
2022/03/21 02:45:33;;;;;;;10.43;2.92;;;;;;;4.65;61.68;101129.94;5031639;28;20509;-44
2022/03/21 02:47:59;;;;;;;7.25;2.67;;;;;;;4.62;61.74;101127.28;5032651;28;20037;-43
2022/03/21 02:51:00;;;;;;;6.63;2.42;;;;;;;4.64;62.10;101135.06;5031986;28;20041;-44
2022/03/21 02:53:28;;;;;;;10.52;2.47;;;;;;;4.61;61.90;101120.41;5031181;28;20087;-43
2022/03/21 02:55:55;;;;;;;9.73;2.30;;;;;;;4.52;61.65;101109.13;5030506;28;20046;-44
2022/03/21 02:58:20;;;;;;;10.10;2.88;;;;;;;4.61;61.93;101125.56;5032173;28;20124;-42
2022/03/21 03:00:46;;;;;;;9.30;2.80;;;;;;;4.61;61.67;101128.13;5020097;28;20136;-44
2022/03/21 03:03:13;;;;;;;8.25;2.40;;;;;;;4.51;62.28;101113.41;5025024;28;20053;-43
2022/03/21 03:05:39;;;;;;;8.35;2.30;;;;;;;4.57;62.13;101122.94;5030376;28;20483;-43
2022/03/21 03:08:05;;;;;;;9.65;2.40;;;;;;;4.53;62.48;101108.28;5032157;28;20147;-44
2022/03/21 03:10:31;;;;;;;10.23;2.55;;;;;;;4.54;62.21;101117.75;5030591;28;20116;-44
2022/03/21 03:12:56;;;;;;;13.07;2.75;;;;;;;4.57;62.42;101113.50;5032131;28;20037;-43
2022/03/21 03:15:22;;;;;;;10.00;2.58;;;;;;;4.55;62.73;101111.75;5024956;28;20049;-43
2022/03/21 03:17:47;;;;;;;13.52;3.00;;;;;;;4.46;62.51;101093.59;5031532;28;20041;-43
2022/03/21 03:20:13;;;;;;;10.00;2.47;;;;;;;4.52;62.66;101103.97;5031715;28;20103;-43
2022/03/21 03:22:39;;;;;;;7.20;2.33;;;;;;;4.32;62.49;101077.97;4993680;28;20133;-43
2022/03/21 03:25:06;;;;;;;10.85;2.58;;;;;;;4.41;62.18;101092.66;5012067;28;20042;-44
2022/03/21 03:27:31;;;;;;;7.57;2.22;;;;;;;4.49;63.01;101107.41;5010772;28;20068;-43
2022/03/21 03:29:58;;;;;;;8.65;2.15;;;;;;;4.37;62.45;101094.34;5056919;28;20109;-44
2022/03/21 03:32:25;;;;;;;10.43;2.30;;;;;;;4.43;62.90;101103.88;5027655;28;20056;-43
2022/03/21 03:34:51;;;;;;;6.57;2.30;;;;;;;4.44;62.79;101110.75;5031196;28;20072;-43
2022/03/21 03:37:16;;;;;;;8.73;2.35;;;;;;;4.43;62.90;101102.16;5031473;28;20069;-44
2022/03/21 03:39:42;;;;;;;12.55;2.70;;;;;;;4.43;63.01;101111.59;5009892;28;20049;-43
2022/03/21 03:42:08;;;;;;;11.98;3.08;;;;;;;4.43;63.01;101096.13;5028973;28;20115;-43
2022/03/21 03:44:34;;;;;;;10.02;2.65;;;;;;;4.42;63.18;101100.41;5020260;28;20463;-44
2022/03/21 03:47:00;;;;;;;12.23;2.50;;;;;;;4.43;63.05;101103.88;5030899;28;20087;-44
2022/03/21 03:49:26;;;;;;;6.50;2.90;;;;;;;4.40;62.96;101101.22;5029397;28;20048;-45
2022/03/21 03:51:52;;;;;;;9.85;2.67;;;;;;;4.36;63.23;101097.75;5030888;28;20049;-45
2022/03/21 03:54:18;;;;;;;10.73;2.92;;;;;;;4.31;63.60;101094.25;5031370;28;20041;-44
2022/03/21 03:56:44;;;;;;;10.10;2.58;;;;;;;4.33;63.43;101102.00;5031418;28;20056;-45
2022/03/21 03:59:10;;;;;;;7.75;2.30;;;;;;;4.34;63.49;101108.91;5011276;28;20049;-44
2022/03/21 04:01:37;;;;;;;9.43;2.80;;;;;;;4.19;63.65;101089.81;5030828;28;20048;-43
2022/03/21 04:04:04;;;;;;;17.77;3.95;;;;;;;4.33;63.68;101113.19;5030703;28;20543;-46
2022/03/21 04:06:30;;;;;;;7.85;2.80;;;;;;;4.37;63.36;101102.06;5029494;28;20037;-44
2022/03/21 04:08:55;;;;;;;6.82;2.35;;;;;;;4.31;63.14;101088.25;5030611;28;20033;-43
2022/03/21 04:11:21;;;;;;;9.90;2.47;;;;;;;4.38;63.38;101097.78;5030800;28;20041;-44
2022/03/21 04:13:47;;;;;;;8.63;3.00;;;;;;;4.46;63.12;101119.34;5030667;28;20047;-44
2022/03/21 04:16:14;;;;;;;10.43;2.30;;;;;;;4.33;63.55;101079.72;5028858;28;20079;-44
2022/03/21 04:18:40;;;;;;;9.85;3.17;;;;;;;4.40;63.18;101080.63;5028633;28;20045;-45
2022/03/21 04:21:06;;;;;;;11.43;3.25;;;;;;;4.54;62.95;101105.75;5028824;28;20041;-44
2022/03/21 04:23:32;;;;;;;11.40;2.70;;;;;;;4.44;62.92;101078.16;5012719;28;20051;-43
2022/03/21 04:25:58;;;;;;;10.85;3.40;;;;;;;4.60;62.69;101105.81;5030117;28;20056;-44
2022/03/21 04:28:24;;;;;;;11.73;3.50;;;;;;;4.63;62.71;101104.97;5012938;28;20057;-43
2022/03/21 04:30:50;;;;;;;9.35;2.88;;;;;;;4.69;62.80;101105.94;5028490;28;20086;-44
2022/03/21 04:33:15;;;;;;;10.82;2.53;;;;;;;4.74;62.83;101102.53;5029740;28;20516;-43
2022/03/21 04:35:42;;;;;;;12.57;3.03;;;;;;;4.80;62.63;101110.34;5026952;28;20054;-44
2022/03/21 04:38:16;;;;;;;16.33;4.28;;;;;;;4.82;62.59;101101.78;5027429;28;20037;-43
2022/03/21 04:40:44;;;;;;;10.80;2.92;;;;;;;4.89;62.20;101106.16;5030194;28;20037;-44
2022/03/21 04:43:10;;;;;;;8.75;3.28;;;;;;;4.95;61.92;101106.22;5029178;28;20065;-44
2022/03/21 04:45:37;;;;;;;9.43;3.60;;;;;;;5.03;62.10;101114.03;5027551;28;20045;-44
2022/03/21 04:48:04;;;;;;;16.00;3.10;;;;;;;5.08;61.80;101102.06;5029582;28;20065;-45
2022/03/21 04:50:31;;;;;;;16.35;5.28;;;;;;;5.16;61.86;101105.59;5029947;28;20432;-42
2022/03/21 04:52:56;;;;;;;13.68;3.45;;;;;;;5.21;61.77;101113.38;5027718;28;20527;-43
2022/03/21 04:55:22;;;;;;;12.50;3.17;;;;;;;5.31;61.80;101113.47;5030153;28;20041;-43
2022/03/21 04:57:48;;;;;;;11.18;3.40;;;;;;;5.39;60.98;101108.41;5029623;28;20045;-45
2022/03/21 05:00:14;;;;;;;13.10;3.30;;;;;;;5.46;61.02;101110.19;5029185;28;20049;-43
2022/03/21 05:02:41;;;;;;;11.38;3.15;;;;;;;5.53;60.70;101111.97;5028921;28;20045;-43
2022/03/21 05:05:08;;;;;;;11.88;3.45;;;;;;;5.65;60.70;101103.47;5030011;28;20119;-43
2022/03/21 05:07:52;;;;;;;10.88;3.67;;;;;;;5.73;60.15;101105.25;5029665;28;20048;-45
2022/03/21 05:10:19;;;;;;;11.43;3.95;;;;;;;5.79;59.80;101104.44;5029210;28;20809;-45
2022/03/21 05:12:44;;;;;;;12.73;3.28;;;;;;;5.83;59.51;101108.78;5028015;28;20559;-43
2022/03/21 05:15:10;;;;;;;9.32;2.55;;;;;;;5.84;59.50;101102.78;5027652;28;20068;-45
2022/03/21 05:17:36;;;;;;;11.27;3.72;;;;;;;5.96;58.88;101118.38;5028792;28;20041;-44
2022/03/21 05:20:08;;;;;;;17.02;3.63;;;;;;;6.00;59.06;101120.13;5026880;28;20034;-44
2022/03/21 05:22:35;;;;;;;13.57;3.60;;;;;;;6.07;59.22;101113.31;5058535;28;20486;-44
2022/03/21 05:35:59;;;;;;;9.23;3.83;;;;;;;6.32;57.74;101107.44;5046288;28;20045;-45
2022/03/21 05:38:26;;;;;;;10.38;3.45;;;;;;;6.30;57.42;101098.78;5029518;28;20037;-44
2022/03/21 05:40:56;;;;;;;10.07;3.35;;;;;;;6.30;57.73;101093.63;5031416;28;20068;-44
2022/03/21 05:43:22;;;;;;;9.32;3.88;;;;;;;6.39;57.47;101099.69;5012125;28;20041;-44
2022/03/21 05:45:49;;;;;;;17.88;5.40;;;;;;;6.42;57.18;101090.25;5028293;28;20575;-46
2022/03/21 05:51:00;;;;;;;12.85;3.55;;;;;;;6.79;56.35;101102.47;5032720;28;20068;-42
2022/03/21 05:53:26;;;;;;;11.15;3.30;;;;;;;7.00;55.75;101086.19;5032844;28;20513;-40
2022/03/21 05:55:52;;;;;;;11.27;3.63;;;;;;;7.41;54.95;101096.59;5028524;28;20060;-42
2022/03/21 05:58:17;;;;;;;10.13;3.22;;;;;;;8.00;53.61;101104.38;5029496;28;20037;-42
2022/03/21 06:00:43;;;;;;;10.05;2.60;;;;;;;8.85;51.85;101097.22;5027833;28;20050;-43
2022/03/21 06:03:10;;;;;;;11.48;3.75;;;;;;;9.93;49.38;101095.63;5033131;28;20087;-43
2022/03/21 06:05:36;;;;;;;9.70;2.88;;;;;;;10.91;46.99;101089.34;5033253;28;20065;-44
2022/03/21 06:08:02;;;;;;;8.90;3.25;;;;;;;11.73;44.78;101087.25;5031829;28;20558;-45
2022/03/21 06:10:29;;;;;;;10.93;3.67;;;;;;;12.59;43.02;101088.28;5026150;28;20097;-44
2022/03/21 06:12:55;;;;;;;8.32;3.33;;;;;;;13.51;41.48;101092.34;5031693;28;20128;-43
2022/03/21 06:15:21;;;;;;;10.88;3.42;;;;;;;14.18;39.90;101070.63;5031132;28;20524;-45
2022/03/21 06:17:47;;;;;;;10.07;3.65;;;;;;;15.12;37.99;101080.13;5036814;28;20065;-46
2022/03/21 06:20:15;;;;;;;16.80;3.95;;;;;;;15.91;36.51;101085.47;5039159;28;20044;-46
2022/03/21 06:22:41;;;;;;;16.85;3.95;;;;;;;16.56;34.99;101088.38;5045046;28;20120;-44
2022/03/21 06:25:07;;;;;;;10.30;3.75;;;;;;;17.20;33.87;101088.59;5031100;28;20041;-46
2022/03/21 06:27:34;;;;;;;11.43;3.97;;;;;;;17.89;32.87;101089.34;5031907;28;20427;-47
2022/03/21 06:30:01;;;;;;;12.60;4.57;;;;;;;18.44;31.56;101083.38;5033177;28;20033;-46
2022/03/21 06:32:28;;;;;;;14.00;4.50;;;;;;;18.99;30.64;101080.91;5015315;28;20559;-46
2022/03/21 06:34:54;;;;;;;12.75;3.60;;;;;;;19.45;29.71;101071.69;5012248;28;20069;-51
2022/03/21 06:37:20;;;;;;;11.23;4.05;;;;;;;20.09;28.69;101076.38;5063386;28;20532;-44
2022/03/21 06:39:46;;;;;;;13.77;4.35;;;;;;;20.54;27.72;101086.34;5031834;28;20045;-44
2022/03/21 06:42:14;;;;;;;19.30;6.25;;;;;;;21.04;27.00;101075.69;5032943;28;20103;-45
2022/03/21 06:44:43;;;;;;;11.02;4.22;;;;;;;21.63;25.99;101082.91;5019943;28;20464;-44
2022/03/21 06:47:10;;;;;;;11.90;4.43;;;;;;;22.13;25.31;101077.31;5026367;28;20053;-45
2022/03/21 06:49:36;;;;;;;11.52;4.30;;;;;;;22.58;24.74;101083.38;5062364;28;20042;-45
2022/03/21 06:52:02;;;;;;;10.18;3.80;;;;;;;22.95;24.29;101081.97;5037941;28;20099;-46
2022/03/21 06:54:29;;;;;;;10.38;3.80;;;;;;;23.23;23.69;101079.28;5030119;28;20513;-44
2022/03/21 06:56:55;;;;;;;11.50;4.30;;;;;;;23.69;23.06;101070.97;5018337;28;20586;-46
2022/03/21 06:59:22;;;;;;;11.68;4.10;;;;;;;24.00;22.41;101066.13;5058742;28;20057;-49
2022/03/21 07:01:48;;;;;;;16.38;4.95;;;;;;;24.08;22.33;101060.28;5021341;28;20040;-47
2022/03/21 07:04:13;;;;;;;12.38;4.50;;;;;;;24.36;21.70;101065.44;5047031;28;20154;-49
2022/03/21 07:06:40;;;;;;;14.15;4.72;;;;;;;24.64;21.54;101067.00;5044177;28;20037;-47
2022/03/21 07:09:05;;;;;;;12.95;4.00;;;;;;;24.80;21.18;101056.97;5028136;28;20055;-46
2022/03/21 07:11:34;;;;;;;13.60;4.30;;;;;;;25.16;20.74;101068.63;5027957;28;20140;-46
2022/03/21 07:14:01;;;;;;;13.57;4.45;;;;;;;25.51;20.46;101074.00;4995224;28;20380;-47
2022/03/21 07:16:26;;;;;;;20.27;5.65;;;;;;;25.90;20.25;101084.38;5026169;28;20045;-46
2022/03/21 07:18:52;;;;;;;15.85;5.03;;;;;;;26.24;19.51;101068.47;5029550;28;20052;-46
2022/03/21 07:21:19;;;;;;;16.25;4.68;;;;;;;26.58;18.88;101056.00;5028815;28;20037;-46
2022/03/21 07:23:45;;;;;;;15.95;4.82;;;;;;;26.70;18.71;101049.66;5027968;28;20696;-48
2022/03/21 07:26:12;;;;;;;21.30;4.80;;;;;;;27.36;18.34;101065.59;5025841;28;20041;-48
2022/03/21 07:28:39;;;;;;;25.55;4.93;;;;;;;27.80;17.81;101061.06;5022152;28;20037;-47
2022/03/21 07:31:09;;;;;;;17.00;4.90;;;;;;;28.37;17.45;101076.66;5027339;28;20528;-46
2022/03/21 07:33:39;;;;;;;16.25;4.82;;;;;;;28.63;17.09;101063.66;5023142;28;20099;-46
2022/03/21 07:36:05;;;;;;;11.73;3.65;;;;;;;28.42;16.70;101066.38;5019483;28;20046;-49
2022/03/21 07:38:31;;;;;;;19.90;4.35;;;;;;;28.52;16.75;101053.09;5019556;28;20042;-48
2022/03/21 07:40:57;;;;;;;21.65;4.53;;;;;;;28.91;16.48;101054.06;5025176;28;20090;-49
2022/03/21 07:43:23;;;;;;;18.95;4.72;;;;;;;29.14;16.26;101055.53;5029111;28;20546;-50
2022/03/21 07:48:33;;;;;;;11.57;4.47;;;;;;;29.01;16.29;101049.59;5023809;28;20033;-45
2022/03/21 07:50:59;;;;;;;12.68;4.13;;;;;;;29.06;16.07;101040.16;5012427;28;20532;-45
2022/03/21 07:53:25;;;;;;;17.08;4.47;;;;;;;29.08;15.90;101050.75;5028865;28;20471;-46
2022/03/21 07:55:50;;;;;;;12.27;4.55;;;;;;;29.22;15.96;101053.00;5033078;28;20275;-48
2022/03/21 07:58:16;;;;;;;15.68;4.25;;;;;;;29.45;15.51;101053.63;5033667;28;20048;-46
2022/03/21 08:00:43;;;;;;;13.55;4.80;;;;;;;29.62;15.64;101057.44;5029386;28;20556;-51
2022/03/21 08:03:14;;;;;;;15.55;3.60;;;;;;;29.64;15.50;101055.44;5024623;28;20114;-47
2022/03/21 08:05:40;;;;;;;13.73;4.00;;;;;;;29.33;15.33;101050.22;5018594;28;20518;-52
2022/03/21 08:08:07;;;;;;;14.32;4.32;;;;;;;29.05;15.53;101051.84;5055536;28;20120;-50
2022/03/21 08:10:34;;;;;;;19.67;4.63;;;;;;;29.01;15.64;101052.25;5028037;28;20037;-50
2022/03/21 08:12:59;;;;;;;21.75;5.00;;;;;;;29.33;15.67;101062.78;5030008;28;20056;-46
2022/03/21 08:15:29;;;;;;;17.52;4.55;;;;;;;29.68;15.18;101060.38;5021918;28;20072;-52
2022/03/21 08:17:56;;;;;;;15.00;3.83;;;;;;;29.70;15.21;101044.16;5033292;28;20136;-52
2022/03/21 08:20:24;;;;;;;9.30;3.55;;;;;;;29.78;15.07;101063.09;5025153;28;20100;-49
2022/03/21 08:22:50;;;;;;;10.40;3.30;;;;;;;29.87;14.77;101062.22;5024310;28;20037;-50
2022/03/21 08:25:17;;;;;;;11.55;3.42;;;;;;;29.93;14.71;101042.91;5018014;28;20291;-48
2022/03/21 08:27:44;;;;;;;12.85;4.13;;;;;;;30.13;14.56;101065.16;5052981;28;20053;-49
2022/03/21 08:30:15;;;;;;;11.75;4.40;;;;;;;30.17;14.67;101056.69;5018538;28;20061;-46
2022/03/21 08:32:42;;;;;;;15.75;3.97;;;;;;;30.37;14.50;101070.03;5020919;28;20037;-50
2022/03/21 08:35:09;;;;;;;11.07;3.78;;;;;;;30.39;14.17;101070.75;5019222;28;20042;-50
2022/03/21 08:37:35;;;;;;;10.20;3.45;;;;;;;30.71;14.27;101069.38;5020426;28;20046;-47
2022/03/21 08:40:02;;;;;;;10.80;3.85;;;;;;;30.95;13.97;101079.56;5026756;28;20527;-51
2022/03/21 08:42:29;;;;;;;11.60;3.45;;;;;;;31.00;13.94;101071.88;5006773;28;20052;-50
2022/03/21 08:44:56;;;;;;;11.15;3.75;;;;;;;31.38;14.01;101069.97;5027998;28;20049;-50
2022/03/21 08:47:22;;;;;;;10.75;3.67;;;;;;;31.50;13.33;101053.47;5031072;28;20152;-47
2022/03/21 08:49:48;;;;;;;10.35;4.03;;;;;;;31.54;13.70;101062.06;5024719;28;20132;-49
2022/03/21 08:52:13;;;;;;;11.50;3.70;;;;;;;31.82;13.18;101063.66;5032437;28;20063;-47
2022/03/21 08:54:42;;;;;;;11.43;3.60;;;;;;;32.13;13.00;101057.88;5024920;28;20052;-48
2022/03/21 08:57:10;;;;;;;19.90;4.28;;;;;;;32.24;12.89;101060.31;5009839;28;20052;-51
2022/03/21 08:59:36;;;;;;;9.15;3.22;;;;;;;32.37;12.97;101064.25;5026532;28;20444;-48
2022/03/21 09:02:03;;;;;;;12.82;3.38;;;;;;;32.52;12.89;101053.72;5019577;28;20041;-47
2022/03/21 09:04:29;;;;;;;10.60;3.83;;;;;;;32.29;12.99;101052.59;5028666;28;20065;-46
2022/03/21 09:06:54;;;;;;;10.10;3.47;;;;;;;32.15;13.08;101055.84;5026304;28;20127;-48
2022/03/21 09:09:21;;;;;;;10.98;3.78;;;;;;;32.20;12.85;101053.53;5027204;28;20037;-48
2022/03/21 09:11:47;;;;;;;20.65;4.03;;;;;;;32.46;12.76;101050.81;5025621;28;20092;-46
2022/03/21 09:14:14;;;;;;;12.00;3.67;;;;;;;32.59;12.78;101049.38;5008238;28;20045;-46
2022/03/21 09:16:42;;;;;;;9.38;3.67;;;;;;;32.60;12.63;101050.22;5027609;28;20041;-47
2022/03/21 09:19:08;;;;;;;9.57;3.55;;;;;;;32.71;12.89;101047.28;5027538;28;20041;-46
2022/03/21 09:21:35;;;;;;;13.98;4.05;;;;;;;32.91;12.71;101050.53;5025002;28;20041;-45
2022/03/21 09:24:01;;;;;;;10.98;4.03;;;;;;;33.00;12.40;101036.91;5027982;28;20048;-45
2022/03/21 09:26:27;;;;;;;9.50;3.30;;;;;;;33.05;12.23;101041.81;5031626;28;20045;-46
2022/03/21 09:29:11;;;;;;;13.40;3.65;;;;;;;33.20;12.27;101051.81;5025467;28;20536;-46
2022/03/21 09:31:40;;;;;;;8.75;3.90;;;;;;;33.49;12.10;101042.44;5025675;28;20045;-46
2022/03/21 09:34:11;;;;;;;16.40;3.95;;;;;;;33.58;11.90;101036.00;5030319;28;20127;-47
2022/03/21 09:36:37;;;;;;;9.15;3.47;;;;;;;33.68;11.80;101038.53;5032363;28;20041;-48
2022/03/21 09:39:04;;;;;;;13.40;3.60;;;;;;;33.83;11.90;101040.41;5032138;28;20460;-47
2022/03/21 09:41:31;;;;;;;13.43;4.05;;;;;;;34.10;11.88;101041.03;5026530;28;20037;-48
2022/03/21 09:44:00;;;;;;;10.75;3.95;;;;;;;34.34;11.52;101033.75;5030970;28;20099;-46
2022/03/21 09:46:26;;;;;;;15.50;4.32;;;;;;;34.46;11.57;101036.91;5031964;28;20064;-46
2022/03/21 09:48:56;;;;;;;12.52;3.83;;;;;;;34.43;11.27;101035.44;5031213;28;20087;-46
2022/03/21 09:51:27;;;;;;;12.48;4.57;;;;;;;34.49;11.56;101039.28;5031543;28;20132;-46
2022/03/21 09:53:57;;;;;;;9.27;3.58;;;;;;;34.68;11.05;101032.59;5031681;28;20048;-49
2022/03/21 09:56:23;;;;;;;11.50;3.53;;;;;;;34.61;10.95;101037.88;5032434;28;20048;-50
2022/03/21 09:58:49;;;;;;;11.65;3.53;;;;;;;34.44;11.31;101022.72;5031679;28;20041;-46
2022/03/21 10:01:16;;;;;;;12.75;3.75;;;;;;;34.57;11.05;101019.47;5031066;28;20045;-47
2022/03/21 10:03:43;;;;;;;10.63;3.63;;;;;;;34.88;10.76;101020.38;5032482;28;20532;-47
2022/03/21 10:06:49;;;;;;;18.02;3.60;;;;;;;35.14;10.92;101026.28;5031489;28;20433;-46
2022/03/21 10:09:17;;;;;;;9.53;3.80;;;;;;;35.15;10.57;101030.69;5055129;28;20045;-44
2022/03/21 10:11:52;;;;;;;14.23;4.00;;;;;;;35.05;10.47;101035.47;5031824;28;20251;-49
2022/03/21 10:14:33;;;;;;;13.68;4.43;;;;;;;35.05;10.79;101031.94;5030507;28;20045;-46
2022/03/21 10:17:03;;;;;;;13.55;3.97;;;;;;;35.17;10.54;101028.63;5031256;28;20052;-45
2022/03/21 10:19:53;;;;;;;11.18;5.13;;;;;;;35.24;10.24;101024.22;5044423;28;20053;-45
2022/03/21 10:22:41;;;;;;;9.70;3.53;;;;;;;35.29;10.10;101026.38;5044365;28;20045;-47
2022/03/21 10:25:08;;;;;;;11.35;4.85;;;;;;;35.24;10.66;101018.81;5025621;28;20080;-48
2022/03/21 10:27:39;;;;;;;23.00;4.85;;;;;;;35.17;10.26;101017.00;5024862;28;20041;-47
2022/03/21 10:30:15;;;;;;;11.70;3.38;;;;;;;35.02;10.27;101026.88;5027054;28;20045;-48
2022/03/21 10:32:47;;;;;;;10.82;3.47;;;;;;;35.00;10.26;101026.22;5032829;28;20128;-49
2022/03/21 10:35:26;;;;;;;9.45;3.53;;;;;;;35.05;10.05;101021.97;5033859;28;20421;-45
2022/03/21 10:37:53;;;;;;;10.93;3.72;;;;;;;34.87;10.67;101015.97;5030735;28;20619;-49
2022/03/21 10:40:21;;;;;;;11.10;3.33;;;;;;;34.88;10.76;101016.81;5035936;28;20057;-50
2022/03/21 10:42:56;;;;;;;;;;;;;;;34.94;10.63;101010.72;5027991;28;20064;-48
2022/03/21 10:45:41;;;;;;;6.25;3.58;;;;;;;35.10;10.19;101014.16;5054028;28;19975;-45
2022/03/21 10:48:10;;;;;;;8.88;3.00;;;;;;;35.08;10.46;101015.34;5029871;28;20056;-46
2022/03/21 10:50:41;;;;;;;9.02;3.33;;;;;;;35.19;10.06;101021.22;5028066;28;20040;-44
2022/03/21 10:53:10;;;;;;;13.98;3.35;;;;;;;35.24;9.82;101024.22;5026897;28;20041;-48
2022/03/21 10:55:36;;;;;;;7.85;2.70;;;;;;;35.34;9.87;101020.41;5031137;28;20041;-48
2022/03/21 10:58:02;;;;;;;7.22;2.70;;;;;;;35.44;9.88;101015.59;5029552;28;20127;-44
2022/03/21 11:00:31;;;;;;;8.45;2.75;;;;;;;35.62;9.53;101018.84;5029533;28;20103;-45
2022/03/21 11:03:05;;;;;;;7.15;2.53;;;;;;;35.66;9.31;101018.31;5032177;28;20045;-45
2022/03/21 11:05:35;;;;;;;10.20;3.15;;;;;;;35.61;9.62;101017.16;5029139;28;20110;-47
2022/03/21 11:08:01;;;;;;;9.13;2.90;;;;;;;35.78;9.72;101021.44;5030204;28;20361;-45
2022/03/21 11:10:28;;;;;;;6.35;3.20;;;;;;;35.88;9.34;101032.00;5029512;28;20049;-48
2022/03/21 11:12:56;;;;;;;7.38;3.05;;;;;;;35.73;9.55;101021.16;5028735;28;20041;-43
2022/03/21 11:15:21;;;;;;;;;;;;;;;35.60;9.76;101023.59;5030847;28;20040;-44
2022/03/21 11:17:48;;;;;;;17.35;3.78;;;;;;;35.59;9.87;101020.03;5029425;28;19929;-44
2022/03/21 11:20:14;;;;;;;11.77;3.03;;;;;;;35.50;9.77;101013.03;5031573;28;20041;-42
2022/03/21 11:22:41;;;;;;;7.35;2.50;;;;;;;35.46;9.36;101009.00;5031164;28;20045;-45
2022/03/21 11:25:15;;;;;;;8.93;2.47;;;;;;;35.46;9.65;101000.03;5010817;28;20089;-47
2022/03/21 11:28:05;;;;;;;10.45;2.58;;;;;;;35.35;9.26;101005.88;5013756;28;20506;-47
2022/03/21 11:30:55;;;;;;;14.52;3.35;;;;;;;35.45;9.64;101001.91;5026332;28;20048;-43
2022/03/21 11:33:49;;;;;;;12.10;2.80;;;;;;;35.41;9.58;101008.72;5008646;28;20061;-44
2022/03/21 11:36:15;;;;;;;6.65;2.53;;;;;;;35.43;9.65;101001.25;5026975;28;20053;-44
2022/03/21 11:38:45;;;;;;;42.58;6.80;;;;;;;35.33;9.39;100997.13;5021257;28;20034;-46
2022/03/21 11:41:10;;;;;;;5.30;2.50;;;;;;;34.95;9.87;100999.72;5032607;28;20044;-45
2022/03/21 11:43:38;;;;;;;7.93;2.67;;;;;;;34.63;9.67;100979.09;5038549;28;20437;-47
2022/03/21 11:46:29;;;;;;;8.00;2.67;;;;;;;34.23;10.07;101003.59;5031479;28;20571;-48
2022/03/21 11:48:57;;;;;;;15.43;2.65;;;;;;;34.02;10.01;100998.72;5020701;28;20038;-43